Time;durP1;ratioP1;P1;durP2;ratioP2;P2;SDS_P1;SDS_P2;PMS_P1;PMS_P2;Temp;Humidity;BMP_temperature;BMP_pressure;BME280_temperature;BME280_humidity;BME280_pressure;Samples;Min_cycle;Max_cycle;Signal;HPM_P1;HPM_P2
2024/02/08 00:02:01;;;;;;;9.00;5.22;;;;;;;2.15;100.00;100406.56;5131146;27;20026;-39
2024/02/08 00:04:26;;;;;;;7.90;5.40;;;;;;;2.18;100.00;100414.19;5130893;27;20027;-39
2024/02/08 00:06:52;;;;;;;15.27;6.73;;;;;;;2.16;100.00;100421.56;5122475;27;20064;-39
2024/02/08 00:09:17;;;;;;;11.07;5.90;;;;;;;2.18;100.00;100419.53;5116470;28;20051;-39
2024/02/08 00:11:42;;;;;;;13.90;5.80;;;;;;;2.17;100.00;100428.53;5117060;28;20015;-38
2024/02/08 00:14:08;;;;;;;10.63;7.07;;;;;;;2.16;100.00;100432.22;5116549;28;20529;-38
2024/02/08 00:16:36;;;;;;;11.13;6.70;;;;;;;2.28;100.00;100420.06;5116368;28;20020;-38
2024/02/08 00:19:02;;;;;;;10.18;5.65;;;;;;;2.27;100.00;100413.06;5116772;28;20026;-38
2024/02/08 00:21:27;;;;;;;9.20;5.43;;;;;;;2.27;100.00;100420.25;5116937;28;20023;-38
2024/02/08 00:23:54;;;;;;;10.63;5.07;;;;;;;2.32;100.00;100418.66;5116201;28;20261;-39
2024/02/08 00:26:20;;;;;;;;;;;;;;;2.38;100.00;100416.25;5116821;28;20023;-39
2024/02/08 00:28:45;;;;;;;10.93;5.75;;;;;;;2.27;100.00;100418.41;5116636;28;19965;-39
2024/02/08 00:31:11;;;;;;;10.97;6.10;;;;;;;2.25;100.00;100416.94;5116644;28;20436;-39
2024/02/08 00:33:37;;;;;;;11.83;5.43;;;;;;;2.28;100.00;100420.06;5116275;28;20016;-39
2024/02/08 00:36:02;;;;;;;7.72;5.68;;;;;;;2.26;100.00;100414.09;5116977;28;20016;-39
2024/02/08 00:38:31;;;;;;;8.13;5.28;;;;;;;2.35;100.00;100422.81;5116192;28;20096;-39
2024/02/08 00:40:56;;;;;;;9.77;5.80;;;;;;;2.35;100.00;100419.31;5116746;28;20389;-39
2024/02/08 00:43:22;;;;;;;11.35;6.40;;;;;;;2.37;100.00;100417.28;5116944;28;20107;-39
2024/02/08 00:45:47;;;;;;;11.47;6.43;;;;;;;2.32;100.00;100412.50;5116041;28;20072;-39
2024/02/08 00:48:13;;;;;;;9.52;6.32;;;;;;;2.21;100.00;100389.00;5116779;28;20276;-39
2024/02/08 00:50:38;;;;;;;10.60;6.80;;;;;;;2.32;100.00;100421.34;5116270;28;20028;-39
2024/02/08 00:53:05;;;;;;;11.37;6.97;;;;;;;2.31;100.00;100425.03;5115931;28;20031;-39
2024/02/08 00:55:34;;;;;;;15.68;8.15;;;;;;;2.37;100.00;100430.63;5115415;28;20773;-39
2024/02/08 00:58:00;;;;;;;13.00;7.68;;;;;;;2.31;100.00;100422.34;5115864;28;20367;-39
2024/02/08 01:00:28;;;;;;;16.70;7.90;;;;;;;2.39;100.00;100428.59;5115722;28;20032;-39
2024/02/08 01:02:59;;;;;;;9.93;5.88;;;;;;;2.35;100.00;100403.31;5116269;27;20031;-39
2024/02/08 01:05:25;;;;;;;10.15;6.18;;;;;;;2.50;100.00;100406.75;5116595;28;20020;-39
2024/02/08 01:07:51;;;;;;;15.33;6.93;;;;;;;2.49;100.00;100411.28;5115967;28;20042;-39
2024/02/08 01:10:16;;;;;;;;;;;;;;;2.59;100.00;100413.63;5116016;28;20024;-39
2024/02/08 01:12:42;;;;;;;9.95;6.13;;;;;;;2.54;100.00;100398.19;5115586;28;19908;-39
2024/02/08 01:15:14;;;;;;;13.32;7.13;;;;;;;2.49;100.00;100384.59;5115386;28;20058;-39
2024/02/08 01:17:42;;;;;;;13.32;6.25;;;;;;;2.58;100.00;100379.94;5115267;28;20516;-39
2024/02/08 01:20:08;;;;;;;10.55;5.63;;;;;;;2.50;100.00;100382.75;5115130;28;20027;-39
2024/02/08 01:22:34;;;;;;;9.90;5.43;;;;;;;2.54;100.00;100405.38;5116133;28;20347;-39
2024/02/08 01:24:59;;;;;;;11.20;6.90;;;;;;;2.48;100.00;100412.28;5115026;28;20031;-39
2024/02/08 01:27:25;;;;;;;12.47;7.37;;;;;;;2.44;100.00;100407.50;5115090;28;20725;-39
2024/02/08 01:29:50;;;;;;;10.27;6.53;;;;;;;2.48;100.00;100406.94;5115212;28;20037;-39
2024/02/08 01:32:17;;;;;;;10.43;7.50;;;;;;;2.43;100.00;100405.84;5115169;28;20023;-41
2024/02/08 01:34:45;;;;;;;17.08;7.82;;;;;;;2.39;100.00;100407.22;5114972;28;20030;-39
2024/02/08 01:37:14;;;;;;;12.35;7.65;;;;;;;2.40;100.00;100400.91;5115308;28;20062;-39
2024/02/08 01:39:43;;;;;;;9.60;5.93;;;;;;;2.52;100.00;100384.19;5115482;28;20020;-39
2024/02/08 01:42:13;;;;;;;10.70;6.35;;;;;;;2.62;100.00;100372.38;5115481;28;20475;-39
2024/02/08 01:44:46;;;;;;;12.93;7.80;;;;;;;2.52;100.00;100375.34;5115131;28;20332;-39
2024/02/08 01:47:12;;;;;;;11.27;6.32;;;;;;;2.58;100.00;100379.94;5114583;28;20102;-39
2024/02/08 01:49:38;;;;;;;9.68;5.93;;;;;;;2.64;100.00;100386.38;5114747;28;20437;-39
2024/02/08 01:52:04;;;;;;;12.88;8.05;;;;;;;2.56;100.00;100389.97;5114918;28;20054;-39
2024/02/08 01:54:30;;;;;;;10.90;7.70;;;;;;;2.50;100.00;100385.41;5114861;28;20047;-39
2024/02/08 01:57:08;;;;;;;10.55;6.93;;;;;;;2.48;100.00;100387.41;5115334;28;20027;-39
2024/02/08 01:59:33;;;;;;;14.00;8.70;;;;;;;2.44;100.00;100391.47;5114644;28;20047;-39
2024/02/08 02:02:01;;;;;;;11.83;8.30;;;;;;;2.46;100.00;100397.47;5114850;28;20027;-39
2024/02/08 02:04:27;;;;;;;15.30;8.50;;;;;;;2.47;100.00;100389.28;5114538;28;20394;-39
2024/02/08 02:06:52;;;;;;;14.23;8.63;;;;;;;2.35;100.00;100381.97;5114288;28;20375;-39
2024/02/08 02:09:24;;;;;;;16.53;9.10;;;;;;;2.33;100.00;100388.28;5114505;28;20088;-39
2024/02/08 02:12:25;;;;;;;14.70;8.38;;;;;;;2.44;100.00;100391.47;5114385;28;20367;-39
2024/02/08 02:14:52;;;;;;;15.27;7.85;;;;;;;2.47;100.00;100391.13;5071008;27;20035;-39
2024/02/08 02:17:26;;;;;;;16.92;8.70;;;;;;;2.43;100.00;100389.84;5114559;28;20507;-39
2024/02/08 02:20:05;;;;;;;14.57;7.97;;;;;;;2.50;100.00;100401.44;5114785;28;20073;-39
2024/02/08 02:22:34;;;;;;;12.93;8.43;;;;;;;2.43;100.00;100389.84;5115009;28;20024;-39
2024/02/08 02:25:00;;;;;;;13.82;7.22;;;;;;;2.53;100.00;100385.00;5114151;28;20024;-39
2024/02/08 02:27:27;;;;;;;11.65;8.40;;;;;;;2.46;100.00;100379.63;5113852;27;20020;-39
2024/02/08 02:29:54;;;;;;;;;;;;;;;2.58;100.00;100374.59;5113993;28;20080;-39
2024/02/08 02:32:21;;;;;;;;;;;;;;;2.63;100.00;100368.69;5115016;28;20343;-39
2024/02/08 02:34:51;;;;;;;12.18;6.75;;;;;;;2.62;100.00;100357.19;5113925;28;19960;-39
2024/02/08 02:37:18;;;;;;;11.60;7.55;;;;;;;2.65;100.00;100361.31;5114023;28;20027;-39
2024/02/08 02:39:44;;;;;;;19.17;9.07;;;;;;;2.55;100.00;100351.78;5113896;28;20110;-39
2024/02/08 02:42:10;;;;;;;10.52;7.45;;;;;;;2.51;100.00;100357.69;5113623;28;20020;-39
2024/02/08 02:44:35;;;;;;;12.57;7.03;;;;;;;2.72;100.00;100356.84;5114151;28;20020;-39
2024/02/08 02:47:03;;;;;;;12.63;7.53;;;;;;;2.69;100.00;100351.94;5113909;28;20414;-39
2024/02/08 02:49:29;;;;;;;12.00;7.35;;;;;;;2.61;100.00;100320.00;5113804;28;20028;-39
2024/02/08 02:51:56;;;;;;;14.82;7.80;;;;;;;2.65;100.00;100324.78;5113967;28;20023;-39
2024/02/08 02:54:22;;;;;;;11.05;7.60;;;;;;;2.72;100.00;100328.31;5113371;28;20030;-39
2024/02/08 02:56:48;;;;;;;12.50;7.50;;;;;;;2.52;100.00;100320.13;5114217;28;20139;-39
2024/02/08 02:59:17;;;;;;;13.48;7.93;;;;;;;2.45;100.00;100335.25;5113786;28;20019;-39
2024/02/08 03:01:47;;;;;;;12.98;8.13;;;;;;;2.41;100.00;100339.31;5113502;28;20097;-39
2024/02/08 03:04:13;;;;;;;11.77;7.22;;;;;;;2.46;100.00;100336.09;5113956;28;20462;-39
2024/02/08 03:06:42;;;;;;;13.60;8.10;;;;;;;2.44;100.00;100332.75;5114523;28;20083;-39
2024/02/08 03:09:14;;;;;;;14.88;8.27;;;;;;;2.44;100.00;100332.75;5113874;28;20193;-39
2024/02/08 03:11:45;;;;;;;14.15;8.10;;;;;;;2.54;100.00;100330.63;5114136;28;20043;-39
2024/02/08 03:14:10;;;;;;;10.32;6.90;;;;;;;2.52;100.00;100320.13;5114034;28;20020;-39
2024/02/08 03:16:41;;;;;;;12.05;6.80;;;;;;;2.65;100.00;100335.44;5114469;28;20396;-39
2024/02/08 03:19:06;;;;;;;14.57;7.65;;;;;;;2.67;100.00;100332.59;5113833;28;20482;-39
2024/02/08 03:21:35;;;;;;;11.53;7.90;;;;;;;2.62;100.00;100330.47;5114123;28;20102;-39
2024/02/08 03:24:10;;;;;;;12.02;7.20;;;;;;;2.69;100.00;100320.72;5113478;28;20265;-39
2024/02/08 03:26:45;;;;;;;13.80;8.02;;;;;;;2.74;100.00;100307.59;5114185;28;20019;-39
2024/02/08 03:29:11;;;;;;;13.75;7.60;;;;;;;2.82;100.00;100312.78;5114049;28;20355;-39
2024/02/08 03:31:47;;;;;;;14.20;8.98;;;;;;;2.78;100.00;100313.38;5113765;28;20026;-39
2024/02/08 03:34:31;;;;;;;10.65;7.72;;;;;;;2.74;100.00;100310.28;5113117;28;20466;-39
2024/02/08 03:36:57;;;;;;;12.63;8.38;;;;;;;2.75;100.00;100319.94;5113996;28;20031;-39
2024/02/08 03:39:24;;;;;;;13.60;7.72;;;;;;;2.81;100.00;100323.66;5113661;28;20019;-39
2024/02/08 03:42:01;;;;;;;16.10;8.65;;;;;;;2.75;100.00;100319.94;5114562;28;20528;-39
2024/02/08 03:44:30;;;;;;;14.57;7.43;;;;;;;2.77;100.00;100314.38;5117477;28;20164;-39
2024/02/08 03:47:04;;;;;;;13.38;8.15;;;;;;;2.65;100.00;100300.75;5117519;28;20054;-39
2024/02/08 03:49:33;;;;;;;16.15;9.15;;;;;;;2.67;100.00;100304.03;5117492;28;20039;-39
2024/02/08 03:51:59;;;;;;;14.00;7.47;;;;;;;2.76;100.00;100310.91;5117122;27;20098;-39
2024/02/08 03:54:30;;;;;;;13.38;7.70;;;;;;;2.66;100.00;100296.22;5117225;28;20053;-39
2024/02/08 03:56:59;;;;;;;10.70;6.65;;;;;;;2.86;100.00;100293.72;5117840;28;20035;-39
2024/02/08 03:59:28;;;;;;;10.27;6.85;;;;;;;2.83;100.00;100301.09;5117228;28;20102;-39
2024/02/08 04:02:01;;;;;;;13.07;7.60;;;;;;;2.68;100.00;100292.34;5117227;28;20035;-39
2024/02/08 04:04:46;;;;;;;15.23;7.65;;;;;;;2.80;100.00;100304.16;5117653;28;20347;-39
2024/02/08 04:07:19;;;;;;;12.30;7.10;;;;;;;2.81;100.00;100313.00;5116582;28;20027;-39
2024/02/08 04:09:50;;;;;;;15.95;7.90;;;;;;;2.70;100.00;100309.00;5117334;28;20027;-39
2024/02/08 04:56:11;;;;;;;10.90;6.40;;;;;;;2.80;100.00;100249.94;5116755;28;20050;-39
2024/02/08 04:58:41;;;;;;;9.50;6.43;;;;;;;2.90;100.00;100246.91;5115965;28;20027;-39
2024/02/08 05:01:10;;;;;;;11.32;6.47;;;;;;;2.84;100.00;100246.69;5116592;28;20344;-39
2024/02/08 05:03:38;;;;;;;13.13;7.63;;;;;;;2.76;100.00;100241.47;5116550;28;20043;-39
2024/02/08 05:06:11;;;;;;;13.93;7.45;;;;;;;2.75;100.00;100247.84;5116445;28;20337;-39
2024/02/08 05:08:41;;;;;;;11.30;7.07;;;;;;;2.76;100.00;100240.66;5115613;28;20039;-39
2024/02/08 05:11:10;;;;;;;15.18;8.55;;;;;;;2.69;100.00;100253.97;5115264;28;20031;-39
2024/02/08 05:13:39;;;;;;;12.15;7.88;;;;;;;2.66;100.00;100237.50;5116377;28;20072;-39
2024/02/08 05:16:15;;;;;;;12.43;8.23;;;;;;;2.74;100.00;100242.69;5115633;28;20066;-39
2024/02/08 05:18:44;;;;;;;11.37;7.70;;;;;;;2.82;100.00;100237.19;5115524;28;20047;-39
2024/02/08 05:21:11;;;;;;;11.77;7.75;;;;;;;2.74;100.00;100232.03;5115320;28;20045;-39
2024/02/08 05:23:38;;;;;;;14.05;8.55;;;;;;;2.71;100.00;100235.06;5115394;28;20023;-39
2024/02/08 05:26:05;;;;;;;15.20;8.90;;;;;;;2.70;100.00;100247.59;5114976;27;20045;-39
2024/02/08 05:28:31;;;;;;;17.27;9.07;;;;;;;2.69;100.00;100240.63;5115839;27;20407;-39
2024/02/08 05:30:56;;;;;;;18.10;9.68;;;;;;;2.57;100.00;100242.97;5115248;28;20058;-39
2024/02/08 05:33:29;;;;;;;16.70;9.33;;;;;;;2.57;100.00;100242.16;5115535;27;20046;-39
2024/02/08 05:35:57;;;;;;;15.27;9.48;;;;;;;2.47;100.00;100241.66;5115279;28;20019;-39
2024/02/08 05:38:26;;;;;;;12.63;8.95;;;;;;;2.48;100.00;100243.31;5115588;28;20019;-39
2024/02/08 05:40:52;;;;;;;13.48;8.85;;;;;;;2.39;100.00;100250.66;5115313;28;20053;-39
2024/02/08 05:43:27;;;;;;;;;;;;;;;2.51;100.00;100261.59;5116224;28;20019;-39
2024/02/08 05:45:53;;;;;;;15.07;8.43;;;;;;;2.53;100.00;100255.03;5115231;28;19910;-39
2024/02/08 05:48:19;;;;;;;17.02;9.23;;;;;;;2.32;100.00;100229.22;5114842;28;20455;-39
2024/02/08 05:50:44;;;;;;;12.73;7.83;;;;;;;2.50;100.00;100242.09;5114578;28;20103;-39
2024/02/08 05:53:15;;;;;;;13.65;8.50;;;;;;;2.47;100.00;100220.31;5114605;28;20136;-39
2024/02/08 05:55:47;;;;;;;14.18;8.50;;;;;;;2.48;100.00;100216.63;5115052;28;20048;-39
2024/02/08 05:58:18;;;;;;;11.57;7.68;;;;;;;2.66;100.00;100221.47;5115141;28;20370;-39
2024/02/08 06:00:52;;;;;;;14.63;8.15;;;;;;;2.69;100.00;100221.94;5115414;28;20019;-39
2024/02/08 06:03:27;;;;;;;15.60;7.80;;;;;;;2.75;100.00;100214.97;5114827;28;20478;-39
2024/02/08 06:06:06;;;;;;;16.30;7.90;;;;;;;2.66;100.00;100205.47;5113740;28;20463;-39
2024/02/08 06:08:42;;;;;;;16.60;8.02;;;;;;;2.63;100.00;100214.66;5114412;28;20020;-39
2024/02/08 06:11:19;;;;;;;14.73;7.82;;;;;;;2.60;100.00;100201.72;5114716;28;20023;-39
2024/02/08 06:13:58;;;;;;;18.17;8.65;;;;;;;2.60;100.00;100204.41;5114874;28;20329;-39
2024/02/08 06:16:45;;;;;;;14.10;8.60;;;;;;;2.58;100.00;100206.41;5114513;28;20023;-39
2024/02/08 06:19:14;;;;;;;20.45;9.38;;;;;;;2.51;100.00;100200.22;5114894;28;20401;-39
2024/02/08 06:21:43;;;;;;;14.52;9.35;;;;;;;2.60;100.00;100207.06;5114474;28;20027;-39
2024/02/08 06:26:58;;;;;;;22.02;10.45;;;;;;;2.51;100.00;100178.88;5114755;28;20054;-39
2024/02/08 06:29:46;;;;;;;24.05;10.68;;;;;;;2.55;100.00;100185.47;5114645;28;20103;-39
2024/02/08 06:32:23;;;;;;;19.75;9.85;;;;;;;2.44;100.00;100181.50;5114241;28;20031;-39
2024/02/08 06:35:06;;;;;;;16.70;9.02;;;;;;;2.65;100.00;100199.31;5114281;28;20371;-39
2024/02/08 06:37:42;;;;;;;19.92;10.20;;;;;;;2.53;100.00;100211.53;5114310;28;20034;-40
2024/02/08 06:40:17;;;;;;;18.25;10.35;;;;;;;2.48;100.00;100209.44;5114337;28;20027;-40
2024/02/08 06:43:25;;;;;;;24.38;10.43;;;;;;;2.48;100.00;100206.75;5114191;28;20084;-40
2024/02/08 07:37:17;;;;;;;16.60;10.07;;;;;;;2.86;100.00;100118.28;5117498;28;20039;-40
2024/02/08 07:39:46;;;;;;;23.35;11.20;;;;;;;2.89;100.00;100104.56;5116939;28;20458;-40
2024/02/08 07:42:19;;;;;;;16.35;9.80;;;;;;;2.91;100.00;100099.00;5117714;28;20016;-39
2024/02/08 07:44:50;;;;;;;22.77;10.93;;;;;;;2.78;100.00;100084.59;5117341;28;20027;-40
2024/02/08 07:47:24;;;;;;;20.42;10.48;;;;;;;2.85;100.00;100105.97;5117500;28;20023;-40
2024/02/08 07:49:49;;;;;;;21.38;10.75;;;;;;;2.81;100.00;100100.19;5117481;28;20026;-40
2024/02/08 07:52:19;;;;;;;21.30;10.53;;;;;;;2.91;100.00;100099.00;5117734;28;20020;-40
2024/02/08 07:54:47;;;;;;;24.90;11.70;;;;;;;2.91;100.00;100107.00;5116899;28;20026;-40
2024/02/08 07:57:12;;;;;;;17.92;10.98;;;;;;;2.90;100.00;100100.03;5117822;28;20028;-40
2024/02/08 07:59:42;;;;;;;17.95;10.88;;;;;;;2.95;100.00;100093.06;5116743;28;20027;-40
2024/02/08 08:02:12;;;;;;;23.73;11.70;;;;;;;2.93;100.00;100087.13;5117211;28;20024;-40
2024/02/08 08:04:51;;;;;;;19.63;11.18;;;;;;;2.94;100.00;100087.94;5116572;28;20027;-40
2024/02/08 08:07:22;;;;;;;19.55;10.27;;;;;;;2.99;100.00;100083.63;5116884;28;20023;-40
2024/02/08 08:09:59;;;;;;;17.60;10.07;;;;;;;3.03;100.00;100084.06;5117352;28;20024;-40
2024/02/08 08:12:29;;;;;;;17.40;10.20;;;;;;;3.05;100.00;100082.81;5116793;28;20448;-40
2024/02/08 08:19:50;;;;;;;19.90;10.53;;;;;;;3.00;100.00;100069.25;5116980;28;20155;-40
2024/02/08 08:27:47;;;;;;;19.10;10.30;;;;;;;3.06;100.00;100046.25;5116074;28;20031;-40
2024/02/08 08:30:28;;;;;;;20.25;10.77;;;;;;;3.13;100.00;100048.97;5116967;28;20015;-40
2024/02/08 08:35:45;;;;;;;18.02;10.52;;;;;;;3.15;100.00;100034.34;5116504;28;20028;-40
2024/02/08 08:40:49;;;;;;;19.13;11.77;;;;;;;3.19;100.00;100038.28;5116378;28;20035;-40
2024/02/08 08:43:19;;;;;;;19.65;10.10;;;;;;;3.17;100.00;100029.63;5117039;28;20114;-40
2024/02/08 08:45:59;;;;;;;18.63;10.15;;;;;;;3.14;100.00;100021.22;5116095;28;20019;-40
2024/02/08 08:48:33;;;;;;;18.60;9.48;;;;;;;3.23;100.00;100039.53;5116378;28;20422;-40
2024/02/08 08:51:10;;;;;;;18.35;10.35;;;;;;;3.23;100.00;100039.53;5116280;28;20042;-40
2024/02/08 08:53:43;;;;;;;19.67;10.60;;;;;;;3.21;100.00;100038.06;5116549;28;20454;-40
2024/02/08 08:56:10;;;;;;;22.15;10.60;;;;;;;3.20;100.00;100034.56;5116291;28;20047;-40
2024/02/08 08:58:40;;;;;;;20.23;10.40;;;;;;;3.21;100.00;100035.38;5116428;28;20106;-40
2024/02/08 09:01:15;;;;;;;19.83;10.48;;;;;;;3.25;100.00;100037.47;5115445;28;20490;-40
2024/02/08 09:03:44;;;;;;;18.73;10.18;;;;;;;3.24;100.00;100032.31;5116008;28;20020;-40
2024/02/08 09:06:13;;;;;;;16.95;9.77;;;;;;;3.22;100.00;100026.34;5115422;28;20028;-40
2024/02/08 09:08:54;;;;;;;14.68;9.25;;;;;;;3.15;100.00;99996.97;5116236;28;20429;-39
2024/02/08 09:11:24;;;;;;;18.38;10.55;;;;;;;3.20;100.00;100002.50;5115875;28;20028;-39
2024/02/08 09:13:53;;;;;;;17.48;9.73;;;;;;;3.08;100.00;99975.59;5116385;28;20088;-40
2024/02/08 09:21:32;;;;;;;15.93;10.68;;;;;;;3.12;100.00;99973.31;5115784;28;20173;-40
2024/02/08 09:24:05;;;;;;;25.50;10.65;;;;;;;3.18;100.00;99995.75;5116131;28;20065;-40
2024/02/08 09:27:00;;;;;;;18.48;9.70;;;;;;;3.10;100.00;99970.03;5115503;28;20047;-40
2024/02/08 09:29:26;;;;;;;17.73;9.75;;;;;;;3.22;100.00;99973.75;5114988;28;20051;-40
2024/02/08 09:31:58;;;;;;;19.67;10.75;;;;;;;3.25;100.00;99967.16;5115783;28;20414;-40
2024/02/08 09:34:37;;;;;;;17.30;11.32;;;;;;;3.23;100.00;99961.22;5115849;28;20344;-40
2024/02/08 09:37:13;;;;;;;17.17;11.57;;;;;;;3.20;100.00;99967.78;5115413;28;20099;-40
2024/02/08 09:39:58;;;;;;;17.80;11.50;;;;;;;3.26;100.00;99963.47;5114715;28;20024;-40
2024/02/08 09:42:26;;;;;;;21.75;12.00;;;;;;;3.28;100.00;99951.56;5115259;28;20035;-40
2024/02/08 09:48:06;;;;;;;19.88;12.55;;;;;;;3.25;100.00;99919.06;5115503;28;20084;-40
2024/02/08 09:50:36;;;;;;;22.02;12.35;;;;;;;3.38;100.00;99923.59;5115131;28;20024;-40
2024/02/08 09:53:18;;;;;;;22.08;11.90;;;;;;;3.35;100.00;99911.47;5115180;28;20080;-40
2024/02/08 09:55:55;;;;;;;18.25;12.30;;;;;;;3.36;100.00;99908.56;5115559;28;20039;-40
2024/02/08 09:58:55;;;;;;;14.98;11.38;;;;;;;3.39;100.00;99915.38;5114974;28;20027;-40
2024/02/08 10:01:21;;;;;;;15.73;11.02;;;;;;;3.42;100.00;99898.94;5114267;28;20031;-40
2024/02/08 10:04:05;;;;;;;17.88;11.85;;;;;;;3.44;100.00;99902.22;5115194;28;20016;-40
2024/02/08 10:06:45;;;;;;;18.38;11.80;;;;;;;3.35;100.00;99882.88;5114561;28;20043;-40
2024/02/08 10:12:06;;;;;;;17.70;11.75;;;;;;;3.45;100.00;99870.94;5114263;28;20088;-40
2024/02/08 10:14:35;;;;;;;16.23;12.50;;;;;;;3.43;100.00;99867.69;5114285;28;20024;-40
2024/02/08 10:17:27;;;;;;;17.45;12.85;;;;;;;3.44;100.00;99864.78;5114699;28;20011;-40
2024/02/08 10:22:53;;;;;;;17.50;12.02;;;;;;;3.44;100.00;99845.25;5114868;28;20486;-40
2024/02/08 10:28:07;;;;;;;19.98;12.98;;;;;;;3.47;100.00;99844.84;5114539;28;20046;-40
2024/02/08 10:30:36;;;;;;;19.00;12.38;;;;;;;3.51;100.00;99843.38;5114140;28;20031;-40
2024/02/08 10:33:04;;;;;;;21.33;12.93;;;;;;;3.53;100.00;99846.69;5113861;28;20053;-40
2024/02/08 10:35:39;;;;;;;17.63;12.65;;;;;;;3.41;100.00;99832.31;5114169;28;20026;-40
2024/02/08 10:38:18;;;;;;;19.83;12.18;;;;;;;3.45;100.00;99846.91;5114347;28;20020;-40
2024/02/08 10:40:47;;;;;;;17.48;11.82;;;;;;;3.54;100.00;99865.19;5114324;28;20031;-40
2024/02/08 10:43:24;;;;;;;16.67;12.32;;;;;;;3.55;100.00;99849.94;5114841;28;20020;-40
2024/02/08 10:45:54;;;;;;;18.00;10.98;;;;;;;3.51;100.00;99838.84;5114491;28;20020;-40
2024/02/08 10:48:23;;;;;;;16.30;11.68;;;;;;;3.55;100.00;99820.56;5114210;28;20024;-40
2024/02/08 10:50:52;;;;;;;18.00;11.07;;;;;;;3.51;100.00;99797.94;5113766;28;20111;-40
2024/02/08 10:53:43;;;;;;;20.85;11.43;;;;;;;3.47;100.00;99802.09;5114503;28;20023;-40
2024/02/08 10:56:14;;;;;;;15.27;10.90;;;;;;;3.49;100.00;99824.06;5113735;28;20171;-40
2024/02/08 10:59:09;;;;;;;13.73;10.18;;;;;;;3.57;100.00;99831.88;5114146;28;20039;-40
2024/02/08 11:01:39;;;;;;;17.48;10.82;;;;;;;3.54;100.00;99816.25;5114093;28;20404;-40
2024/02/08 11:04:17;;;;;;;19.77;11.30;;;;;;;3.53;100.00;99814.59;5113573;28;20027;-40
2024/02/08 11:07:06;;;;;;;15.45;10.88;;;;;;;3.57;100.00;99818.50;5114584;28;20084;-40
2024/02/08 11:09:35;;;;;;;16.02;12.13;;;;;;;3.55;100.00;99812.53;5113726;28;20041;-40
2024/02/08 11:12:08;;;;;;;17.50;11.30;;;;;;;3.61;100.00;99811.69;5113925;28;20118;-40
2024/02/08 11:14:40;;;;;;;17.58;12.98;;;;;;;3.55;100.00;99809.84;5113505;28;20019;-40
2024/02/08 11:17:20;;;;;;;18.55;12.05;;;;;;;3.65;100.00;99823.59;5113711;28;20020;-40
2024/02/08 11:19:57;;;;;;;16.17;11.73;;;;;;;3.69;100.00;99818.66;5113619;28;20072;-40
2024/02/08 11:22:40;;;;;;;19.67;12.38;;;;;;;3.63;100.00;99809.63;5113671;28;20494;-40
2024/02/08 11:25:44;;;;;;;19.35;12.20;;;;;;;3.69;100.00;99807.97;5113564;28;20020;-40
2024/02/08 11:28:13;;;;;;;16.83;12.23;;;;;;;3.75;100.00;99813.28;5111258;28;20031;-40
2024/02/08 11:30:40;;;;;;;19.73;13.43;;;;;;;3.71;100.00;99812.09;5113507;28;20367;-40
2024/02/08 11:33:20;;;;;;;15.88;12.40;;;;;;;3.77;100.00;99794.38;5114065;28;20024;-40
2024/02/08 11:35:54;;;;;;;18.05;13.05;;;;;;;3.75;100.00;99781.19;5113788;28;20052;-40
2024/02/08 11:38:34;;;;;;;18.38;12.00;;;;;;;3.77;100.00;99764.97;5113804;28;20111;-40
2024/02/08 11:41:09;;;;;;;18.77;13.35;;;;;;;3.73;100.00;99751.19;5113533;28;20413;-40
2024/02/08 11:43:36;;;;;;;21.52;13.65;;;;;;;3.77;100.00;99751.59;5113480;28;20020;-40
2024/02/08 11:46:04;;;;;;;17.20;12.95;;;;;;;3.68;100.00;99718.09;5113073;28;20487;-40
2024/02/08 11:48:31;;;;;;;17.80;13.65;;;;;;;3.81;100.00;99726.88;5113418;28;20024;-40
2024/02/08 11:50:59;;;;;;;18.48;14.05;;;;;;;3.77;100.00;99708.81;5113073;28;20024;-40
2024/02/08 11:53:32;;;;;;;22.05;14.65;;;;;;;3.83;100.00;99714.09;5113639;28;20027;-40
2024/02/08 11:56:03;;;;;;;19.23;16.15;;;;;;;3.82;100.00;99717.81;5113191;28;20505;-40
2024/02/08 11:58:32;;;;;;;21.02;15.77;;;;;;;3.86;100.00;99708.34;5113686;28;20031;-40
2024/02/08 12:00:58;;;;;;;18.75;15.15;;;;;;;3.87;100.00;99718.00;5113310;28;20023;-40
2024/02/08 12:03:26;;;;;;;20.17;15.70;;;;;;;3.88;100.00;99713.47;5116339;28;20027;-40
2024/02/08 12:05:57;;;;;;;19.90;15.13;;;;;;;3.87;100.00;99704.63;5117276;28;20031;-40
2024/02/08 12:08:25;;;;;;;18.60;15.45;;;;;;;3.85;100.00;99698.66;5116986;28;20107;-40
2024/02/08 12:10:51;;;;;;;22.02;14.90;;;;;;;3.81;100.00;99681.41;5116904;28;20022;-40
2024/02/08 12:13:24;;;;;;;22.63;16.35;;;;;;;3.75;100.00;99671.56;5117026;28;20348;-40
2024/02/08 12:15:55;;;;;;;20.98;14.73;;;;;;;3.72;100.00;99680.03;5117027;27;20023;-40
2024/02/08 12:18:21;;;;;;;22.60;15.70;;;;;;;3.69;100.00;99672.44;5117673;28;20051;-40
2024/02/08 12:20:55;;;;;;;19.92;14.77;;;;;;;3.73;100.00;99672.81;5117272;28;20023;-40
2024/02/08 12:23:23;;;;;;;18.55;14.95;;;;;;;3.72;100.00;99663.97;5116777;28;20023;-40
2024/02/08 12:25:53;;;;;;;16.48;13.77;;;;;;;3.70;100.00;99659.88;5116338;28;20443;-40
2024/02/08 12:28:19;;;;;;;21.88;15.80;;;;;;;3.71;100.00;99662.34;5116689;27;20111;-40
2024/02/08 12:30:45;;;;;;;19.95;14.93;;;;;;;3.72;100.00;99652.47;5116621;28;20027;-40
2024/02/08 12:33:11;;;;;;;21.45;14.52;;;;;;;3.69;100.00;99637.66;5117418;28;20073;-40
2024/02/08 12:35:41;;;;;;;18.83;14.25;;;;;;;3.71;100.00;99642.78;5116397;28;20027;-40
2024/02/08 12:38:09;;;;;;;19.23;14.10;;;;;;;3.68;100.00;99636.03;5116692;28;20446;-40
2024/02/08 12:40:35;;;;;;;18.55;15.02;;;;;;;3.55;100.00;99601.34;5116029;28;20298;-40
2024/02/08 12:43:00;;;;;;;18.00;14.70;;;;;;;3.61;100.00;99612.03;5116910;28;20103;-40
2024/02/08 12:45:29;;;;;;;20.27;16.05;;;;;;;3.62;100.00;99615.53;5116589;28;20058;-40
2024/02/08 12:47:57;;;;;;;17.60;15.25;;;;;;;3.65;100.00;99628.44;5116026;28;20077;-40
2024/02/08 12:50:24;;;;;;;18.98;15.30;;;;;;;3.61;100.00;99613.84;5116154;28;20444;-40
2024/02/08 12:52:56;;;;;;;22.63;17.17;;;;;;;3.67;100.00;99629.06;5116687;27;20015;-40
2024/02/08 12:55:29;;;;;;;18.92;16.13;;;;;;;3.70;100.00;99612.56;5115853;28;20448;-40
2024/02/08 12:58:01;;;;;;;19.88;17.25;;;;;;;3.61;100.00;99576.44;5115738;28;20058;-40
2024/02/08 13:00:33;;;;;;;21.67;18.95;;;;;;;3.61;100.00;99577.28;5115728;28;20019;-40
2024/02/08 13:03:05;;;;;;;21.60;17.83;;;;;;;3.62;100.00;99575.41;5116542;28;20420;-40
2024/02/08 13:05:41;;;;;;;21.90;18.48;;;;;;;3.65;100.00;99584.84;5115544;28;20510;-40
2024/02/08 13:08:08;;;;;;;22.33;18.15;;;;;;;3.60;100.00;99575.63;5116664;28;20024;-40
2024/02/08 13:10:34;;;;;;;21.85;18.40;;;;;;;3.61;100.00;99577.28;5115775;28;20020;-40
2024/02/08 13:13:00;;;;;;;;;;;;;;;3.69;100.00;99568.16;5116426;28;20024;-40
2024/02/08 13:15:32;;;;;;;24.90;19.60;;;;;;;3.57;100.00;99559.22;5116355;28;19948;-40
2024/02/08 13:17:57;;;;;;;21.27;17.75;;;;;;;3.63;100.00;99563.69;5116406;28;20020;-40
2024/02/08 13:20:23;;;;;;;19.67;17.27;;;;;;;3.58;100.00;99534.09;5115510;28;20019;-40
2024/02/08 13:22:52;;;;;;;21.52;17.60;;;;;;;3.63;100.00;99536.94;5116020;27;20024;-40
2024/02/08 13:25:18;;;;;;;20.83;17.00;;;;;;;3.61;100.00;99531.84;5115386;28;20024;-40
2024/02/08 13:27:48;;;;;;;20.30;17.58;;;;;;;3.59;100.00;99514.34;5115194;28;20042;-40
2024/02/08 13:30:16;;;;;;;22.98;17.95;;;;;;;3.59;100.00;99514.34;5116185;28;20352;-40
2024/02/08 13:32:49;;;;;;;20.55;18.40;;;;;;;3.61;100.00;99501.56;5115857;27;20043;-40
2024/02/08 13:35:20;;;;;;;23.42;20.35;;;;;;;3.47;100.00;99478.69;5115481;28;20050;-40
2024/02/08 13:37:54;;;;;;;22.80;19.13;;;;;;;3.67;100.00;99495.38;5115770;28;20345;-40
2024/02/08 13:40:22;;;;;;;24.90;21.55;;;;;;;3.59;100.00;99490.28;5115368;28;20031;-40
2024/02/08 13:42:49;;;;;;;22.05;19.70;;;;;;;3.61;100.00;99485.53;5115094;28;20042;-40
2024/02/08 13:45:15;;;;;;;23.52;20.92;;;;;;;3.60;100.00;99482.03;5115063;28;20063;-41
2024/02/08 13:47:49;;;;;;;21.65;19.38;;;;;;;3.62;100.00;99479.19;5115864;28;20069;-40